createdAt,value
2019-01-29T00:01:54.568Z,82.06
2019-01-29T00:04:21.489Z,81.83
2019-01-29T00:06:48.449Z,82.12
2019-01-29T00:09:15.342Z,82.75
2019-01-29T00:11:42.243Z,82.36
2019-01-29T00:14:08.917Z,82.20
2019-01-29T00:16:36.814Z,82.21
2019-01-29T00:19:03.968Z,82.20
2019-01-29T00:21:30.593Z,82.13
2019-01-29T00:23:57.472Z,82.69
2019-01-29T00:26:24.426Z,82.70
2019-01-29T00:28:51.324Z,82.25
2019-01-29T00:31:18.005Z,82.38
2019-01-29T00:33:44.894Z,82.18
2019-01-29T00:36:12.588Z,82.54
2019-01-29T00:38:50.312Z,82.66
2019-01-29T00:41:19.476Z,83.49
2019-01-29T00:43:46.050Z,83.10
2019-01-29T00:46:12.708Z,83.11
2019-01-29T00:48:39.400Z,83.03
2019-01-29T00:51:08.586Z,82.74
2019-01-29T00:53:35.159Z,82.68
2019-01-29T00:56:01.817Z,82.57
2019-01-29T00:58:28.611Z,82.47
2019-01-29T01:00:55.256Z,82.35
2019-01-29T01:03:21.819Z,82.14
2019-01-29T01:05:48.409Z,82.36
2019-01-29T01:08:14.956Z,83.01
2019-01-29T01:10:41.494Z,83.46
2019-01-29T01:13:08.164Z,83.30
2019-01-29T01:15:34.836Z,83.52
2019-01-29T01:18:01.404Z,83.71
2019-01-29T01:20:27.960Z,83.81
2019-01-29T01:22:54.532Z,83.80
2019-01-29T01:25:21.152Z,83.65
2019-01-29T01:27:48.861Z,83.71
2019-01-29T01:30:17.634Z,83.25
2019-01-29T01:32:44.436Z,83.54
2019-01-29T01:35:10.979Z,83.54
2019-01-29T01:37:37.603Z,83.69
2019-01-29T01:40:09.989Z,83.74
2019-01-29T01:42:36.561Z,83.86
2019-01-29T01:45:08.170Z,84.22
2019-01-29T01:47:34.769Z,83.46
2019-01-29T01:50:01.433Z,83.35
2019-01-29T01:52:28.169Z,83.42
2019-01-29T01:54:54.732Z,83.65
2019-01-29T01:57:21.308Z,83.57
2019-01-29T01:59:47.871Z,83.77
2019-01-29T02:02:14.468Z,84.19
2019-01-29T02:04:41.149Z,84.32
2019-01-29T02:07:07.762Z,83.79
2019-01-29T02:09:34.584Z,83.13
2019-01-29T02:12:01.163Z,83.12
2019-01-29T02:14:27.725Z,82.76
2019-01-29T02:16:54.450Z,83.43
2019-01-29T02:19:21.000Z,83.12
2019-01-29T02:21:47.644Z,82.49
2019-01-29T02:24:14.313Z,82.19
2019-01-29T02:26:40.934Z,82.07
2019-01-29T02:29:07.612Z,81.99
2019-01-29T02:31:34.576Z,81.79
2019-01-29T02:34:01.151Z,82.05
2019-01-29T02:36:27.803Z,82.14
2019-01-29T02:38:54.396Z,81.74
2019-01-29T02:41:21.010Z,81.39
2019-01-29T02:43:47.588Z,80.42
2019-01-29T02:46:14.549Z,80.64
2019-01-29T02:48:41.233Z,80.18
2019-01-29T02:51:07.843Z,81.02
2019-01-29T02:53:34.997Z,80.13
2019-01-29T02:56:02.039Z,79.85
2019-01-29T02:58:28.712Z,79.92
2019-01-29T03:00:55.300Z,80.82
2019-01-29T03:03:21.895Z,82.22
2019-01-29T03:05:48.455Z,82.89
2019-01-29T03:08:15.408Z,83.39
2019-01-29T03:10:42.326Z,83.04
2019-01-29T03:13:08.991Z,82.68
2019-01-29T03:15:36.708Z,82.87
2019-01-29T03:18:03.245Z,82.57
2019-01-29T03:20:30.228Z,83.15
2019-01-29T03:22:57.219Z,83.05
2019-01-29T03:25:24.210Z,83.35
2019-01-29T03:27:51.341Z,83.22
2019-01-29T03:30:20.608Z,82.99
2019-01-29T03:32:47.427Z,82.69
2019-01-29T03:35:14.450Z,82.82
2019-01-29T03:37:41.064Z,82.89
2019-01-29T03:40:12.453Z,82.77
2019-01-29T03:42:40.900Z,82.86
2019-01-29T03:45:12.747Z,82.85
2019-01-29T03:47:39.452Z,82.55
2019-01-29T03:50:10.154Z,82.92
2019-01-29T03:52:36.836Z,82.57
2019-01-29T03:55:05.995Z,82.31
2019-01-29T03:57:32.614Z,82.32
2019-01-29T03:59:59.502Z,82.43
2019-01-29T04:02:26.130Z,82.38
2019-01-29T04:04:52.678Z,82.69
2019-01-29T04:07:19.353Z,82.53
2019-01-29T04:09:46.087Z,82.59
2019-01-29T04:12:12.758Z,82.65
2019-01-29T04:14:39.320Z,83.17
2019-01-29T04:17:06.030Z,83.13
2019-01-29T04:19:32.738Z,82.84
2019-01-29T04:21:59.318Z,83.27
2019-01-29T04:24:25.967Z,83.30
2019-01-29T04:26:52.574Z,83.12
2019-01-29T04:29:19.175Z,82.87
2019-01-29T04:31:46.127Z,83.12
2019-01-29T04:34:12.703Z,83.28
2019-01-29T04:36:39.370Z,83.44
2019-01-29T04:39:06.571Z,83.15
2019-01-29T04:41:33.257Z,83.12
2019-01-29T04:43:59.872Z,82.90
2019-01-29T04:46:26.513Z,82.65
2019-01-29T04:48:53.068Z,82.41
2019-01-29T04:51:19.720Z,82.73
2019-01-29T04:53:46.403Z,82.43
2019-01-29T04:56:13.017Z,82.66
2019-01-29T04:58:39.574Z,82.73
2019-01-29T05:01:06.253Z,82.39
2019-01-29T05:03:32.912Z,82.21
2019-01-29T05:05:59.613Z,82.60
2019-01-29T05:08:26.248Z,82.87
2019-01-29T05:10:52.848Z,82.36
2019-01-29T05:13:19.414Z,82.35
2019-01-29T05:15:45.973Z,82.35
2019-01-29T05:18:12.609Z,82.67
2019-01-29T05:20:39.185Z,82.83
2019-01-29T05:23:05.817Z,83.06
2019-01-29T05:25:32.500Z,83.20
2019-01-29T05:27:59.522Z,83.01
2019-01-29T05:30:26.227Z,83.14
2019-01-29T05:32:52.851Z,82.85
2019-01-29T05:35:19.521Z,83.26
2019-01-29T05:37:46.272Z,82.97
2019-01-29T05:40:16.445Z,82.95
2019-01-29T05:42:43.184Z,82.93
2019-01-29T05:45:14.552Z,83.09
2019-01-29T05:47:41.125Z,83.20
2019-01-29T05:50:11.950Z,83.10
2019-01-29T05:52:38.515Z,82.67
2019-01-29T05:55:07.936Z,82.80
2019-01-29T05:57:34.688Z,83.13
2019-01-29T06:00:01.359Z,83.32
2019-01-29T06:02:27.997Z,83.21
2019-01-29T06:04:54.639Z,83.27
2019-01-29T06:07:21.331Z,83.09
2019-01-29T06:09:48.033Z,83.13
2019-01-29T06:12:14.598Z,83.37
2019-01-29T06:14:41.302Z,83.25
2019-01-29T06:17:07.862Z,83.33
2019-01-29T06:19:34.557Z,83.05
2019-01-29T06:22:01.167Z,82.82
2019-01-29T06:24:27.850Z,83.54
2019-01-29T06:26:54.431Z,83.21
2019-01-29T06:29:21.074Z,83.14
2019-01-29T06:31:47.657Z,83.20
2019-01-29T06:34:14.333Z,82.89
2019-01-29T06:36:40.905Z,82.72
2019-01-29T06:39:07.584Z,82.62
2019-01-29T06:41:34.529Z,82.79
2019-01-29T06:44:01.083Z,82.21
2019-01-29T06:46:27.621Z,82.85
2019-01-29T06:48:54.198Z,82.72
2019-01-29T06:51:21.103Z,82.48
2019-01-29T06:53:47.762Z,82.37
2019-01-29T06:56:14.378Z,82.58
2019-01-29T06:58:41.071Z,82.24
2019-01-29T07:01:07.611Z,82.59
2019-01-29T07:03:34.373Z,82.68
2019-01-29T07:06:00.952Z,82.71
2019-01-29T07:08:27.963Z,82.57
2019-01-29T07:10:54.563Z,82.30
2019-01-29T07:13:21.363Z,82.48
2019-01-29T07:15:49.859Z,82.52
2019-01-29T07:18:18.431Z,82.19
2019-01-29T07:20:44.991Z,82.09
2019-01-29T07:23:12.172Z,82.30
2019-01-29T07:25:38.802Z,82.38
2019-01-29T07:28:05.409Z,82.68
2019-01-29T07:30:32.060Z,82.54
2019-01-29T07:32:58.664Z,82.58
2019-01-29T07:35:25.243Z,82.09
2019-01-29T07:37:51.834Z,82.05
2019-01-29T07:40:18.436Z,82.29
2019-01-29T07:42:45.067Z,82.09
2019-01-29T07:45:12.860Z,81.84
2019-01-29T07:47:39.455Z,81.83
2019-01-29T07:50:09.068Z,81.57
2019-01-29T07:52:35.779Z,81.93
2019-01-29T07:55:06.200Z,81.12
2019-01-29T07:57:32.887Z,80.50
2019-01-29T07:59:59.545Z,80.67
2019-01-29T08:02:26.151Z,80.24
2019-01-29T08:04:53.546Z,80.47
2019-01-29T08:07:20.217Z,80.25
2019-01-29T08:09:46.797Z,79.77
2019-01-29T08:12:13.415Z,79.90
2019-01-29T08:14:40.096Z,79.62
2019-01-29T08:17:06.854Z,79.10
2019-01-29T08:19:33.763Z,78.71
2019-01-29T08:22:00.419Z,79.33
2019-01-29T08:24:27.818Z,78.97
2019-01-29T08:26:54.545Z,78.61
2019-01-29T08:29:21.118Z,78.70
2019-01-29T08:31:47.766Z,78.42
2019-01-29T08:34:14.373Z,77.86
2019-01-29T08:36:41.033Z,77.37
2019-01-29T08:39:11.107Z,77.35
2019-01-29T08:41:37.956Z,77.48
2019-01-29T08:44:05.053Z,77.41
2019-01-29T08:46:31.623Z,76.92
2019-01-29T08:48:58.248Z,77.02
2019-01-29T08:51:24.844Z,77.74
2019-01-29T08:53:52.707Z,77.51
2019-01-29T08:56:19.320Z,77.53
2019-01-29T08:58:45.903Z,77.06
2019-01-29T09:01:16.020Z,77.67
2019-01-29T09:03:46.356Z,77.46
2019-01-29T09:06:13.149Z,77.87
2019-01-29T09:08:39.751Z,77.90
2019-01-29T09:11:06.384Z,77.57
2019-01-29T09:13:32.956Z,77.18
2019-01-29T09:15:59.547Z,78.05
2019-01-29T09:18:26.126Z,77.54
2019-01-29T09:20:52.771Z,77.64
2019-01-29T09:23:19.343Z,77.89
2019-01-29T09:25:45.978Z,77.70
2019-01-29T09:28:18.376Z,77.33
2019-01-29T09:30:41.073Z,77.25
2019-01-29T09:33:07.652Z,77.32
2019-01-29T09:35:34.338Z,77.16
2019-01-29T09:38:00.910Z,77.12
2019-01-29T09:40:27.491Z,77.18
2019-01-29T09:42:54.064Z,76.59
2019-01-29T09:45:20.733Z,76.75
2019-01-29T09:47:48.588Z,77.04
2019-01-29T09:50:21.002Z,76.47
2019-01-29T09:52:47.661Z,76.04
2019-01-29T09:55:17.471Z,76.16
2019-01-29T09:57:44.219Z,76.01
2019-01-29T10:00:16.399Z,76.28
2019-01-29T10:02:42.988Z,75.90
2019-01-29T10:05:09.684Z,75.33
2019-01-29T10:07:37.357Z,74.91
2019-01-29T10:10:09.360Z,74.60
2019-01-29T10:12:35.965Z,73.91
2019-01-29T10:15:09.460Z,74.06
2019-01-29T10:17:36.067Z,73.59
2019-01-29T10:20:05.468Z,72.96
2019-01-29T10:22:32.393Z,73.56
2019-01-29T10:24:58.978Z,73.37
2019-01-29T10:27:25.661Z,72.77
2019-01-29T10:29:52.227Z,73.87
2019-01-29T10:32:18.815Z,73.22
2019-01-29T10:34:45.390Z,72.31
2019-01-29T10:37:12.195Z,72.10
2019-01-29T10:39:38.790Z,71.97
2019-01-29T10:42:06.024Z,72.36
2019-01-29T10:44:32.945Z,72.50
2019-01-29T10:46:59.523Z,72.45
2019-01-29T10:49:26.096Z,72.22
2019-01-29T10:51:52.672Z,70.94
2019-01-29T10:54:19.225Z,70.38
2019-01-29T10:56:45.796Z,70.89
2019-01-29T10:59:12.493Z,69.92
2019-01-29T11:01:39.066Z,70.24
2019-01-29T11:04:06.055Z,70.39
2019-01-29T11:07:29.567Z,70.29
2019-01-29T11:09:56.215Z,70.43
2019-01-29T11:12:23.154Z,69.22
2019-01-29T11:14:49.803Z,69.17
2019-01-29T11:17:16.447Z,70.14
2019-01-29T11:19:43.194Z,70.47
2019-01-29T11:22:10.019Z,70.79
2019-01-29T11:24:36.570Z,71.00
2019-01-29T11:27:03.258Z,70.76
2019-01-29T11:29:29.829Z,70.63
2019-01-29T11:31:56.361Z,70.07
2019-01-29T11:34:22.962Z,70.22
2019-01-29T11:36:49.510Z,70.27
2019-01-29T11:39:16.095Z,70.23
2019-01-29T11:41:42.718Z,70.83
2019-01-29T11:44:09.294Z,70.71
2019-01-29T11:46:35.915Z,70.87
2019-01-29T11:49:02.764Z,70.13
2019-01-29T11:51:29.897Z,70.39
2019-01-29T11:53:56.474Z,70.96
2019-01-29T11:56:23.058Z,70.78
2019-01-29T11:58:49.703Z,70.82
2019-01-29T12:01:16.370Z,71.04
2019-01-29T12:03:42.924Z,70.78
2019-01-29T12:06:09.511Z,70.40
2019-01-29T12:08:36.154Z,70.43
2019-01-29T12:11:02.704Z,70.02
2019-01-29T12:13:29.489Z,69.79
2019-01-29T12:15:56.146Z,69.85
2019-01-29T12:18:22.741Z,69.78
2019-01-29T12:20:49.310Z,69.60
2019-01-29T12:23:16.786Z,69.95
2019-01-29T12:25:43.387Z,69.26
2019-01-29T12:28:09.934Z,68.94
2019-01-29T12:30:36.695Z,69.30
2019-01-29T12:33:06.682Z,69.16
2019-01-29T12:35:33.419Z,69.56
2019-01-29T12:38:00.039Z,70.07
2019-01-29T12:40:26.650Z,69.54
2019-01-29T12:42:53.209Z,69.09
2019-01-29T12:45:21.032Z,68.81
2019-01-29T12:47:47.730Z,69.23
2019-01-29T12:50:20.061Z,68.83
2019-01-29T12:52:48.985Z,68.81
2019-01-29T12:55:15.572Z,69.31
2019-01-29T12:57:42.181Z,69.07
2019-01-29T13:00:14.630Z,68.89
2019-01-29T13:02:41.307Z,68.66
2019-01-29T13:05:11.411Z,68.71
2019-01-29T13:07:37.988Z,68.79
2019-01-29T13:10:10.377Z,68.41
2019-01-29T13:12:36.987Z,68.77
2019-01-29T13:15:09.457Z,68.47
2019-01-29T13:17:36.310Z,68.29
2019-01-29T13:20:08.267Z,68.65
2019-01-29T13:22:34.976Z,68.21
2019-01-29T13:25:01.533Z,67.88
2019-01-29T13:27:29.452Z,68.03
2019-01-29T13:29:56.009Z,67.80
2019-01-29T13:32:23.014Z,67.61
2019-01-29T13:34:49.843Z,68.15
2019-01-29T13:37:16.399Z,68.07
2019-01-29T13:39:43.174Z,68.27
2019-01-29T13:42:09.760Z,67.98
2019-01-29T13:44:40.497Z,67.60
2019-01-29T13:47:10.872Z,68.27
2019-01-29T13:50:37.751Z,67.68
2019-01-29T13:53:05.384Z,67.66
2019-01-29T13:55:32.193Z,67.58
2019-01-29T13:57:58.801Z,67.81
2019-01-29T14:00:30.607Z,67.81
2019-01-29T14:02:57.618Z,67.79
2019-01-29T14:05:24.184Z,67.52
2019-01-29T14:07:50.908Z,67.67
2019-01-29T14:10:17.577Z,67.59
2019-01-29T14:12:44.262Z,67.97
2019-01-29T14:15:18.051Z,68.04
2019-01-29T14:17:47.170Z,67.85
2019-01-29T14:20:17.046Z,68.29
2019-01-29T14:22:44.642Z,68.74
2019-01-29T14:25:11.191Z,68.70
2019-01-29T14:27:37.800Z,69.07
2019-01-29T14:30:10.261Z,68.45
2019-01-29T14:32:36.864Z,68.73
2019-01-29T14:36:00.146Z,68.89
2019-01-29T14:38:26.840Z,69.30
2019-01-29T14:40:53.493Z,69.45
2019-01-29T14:43:26.311Z,69.57
2019-01-29T14:45:53.151Z,69.99
2019-01-29T14:48:19.715Z,70.46
2019-01-29T14:50:46.305Z,70.43
2019-01-29T14:53:12.960Z,70.15
2019-01-29T14:55:39.575Z,69.75
2019-01-29T14:58:06.172Z,70.17
2019-01-29T15:00:37.520Z,69.99
2019-01-29T15:03:04.081Z,69.64
2019-01-29T15:05:30.906Z,69.69
2019-01-29T15:07:57.636Z,69.65
2019-01-29T15:10:27.653Z,69.76
2019-01-29T15:12:56.498Z,69.93
2019-01-29T15:15:27.979Z,70.05
2019-01-29T15:17:56.579Z,70.23
2019-01-29T15:20:23.207Z,69.84
2019-01-29T15:22:50.194Z,69.49
2019-01-29T15:25:17.880Z,69.89
2019-01-29T15:27:44.698Z,70.00
2019-01-29T15:30:15.093Z,69.80
2019-01-29T15:32:42.078Z,69.77
2019-01-29T15:35:08.686Z,68.83
2019-01-29T15:37:35.303Z,69.09
2019-01-29T15:40:05.056Z,68.36
2019-01-29T15:42:31.985Z,67.40
2019-01-29T15:44:59.091Z,67.87
2019-01-29T15:47:26.201Z,68.14
2019-01-29T15:49:52.890Z,67.83
2019-01-29T15:52:20.206Z,67.45
2019-01-29T15:54:46.866Z,67.74
2019-01-29T15:57:14.472Z,67.72
2019-01-29T15:59:43.056Z,67.96
2019-01-29T16:02:09.711Z,67.35
2019-01-29T16:04:36.324Z,67.67
2019-01-29T16:07:02.930Z,68.29
2019-01-29T16:09:29.580Z,67.50
2019-01-29T16:11:56.648Z,67.04
2019-01-29T16:14:23.693Z,67.45
2019-01-29T16:16:50.620Z,68.00
2019-01-29T16:19:17.307Z,68.24
2019-01-29T16:21:44.629Z,68.51
2019-01-29T16:24:11.319Z,68.37
2019-01-29T16:26:38.122Z,68.94
2019-01-29T16:29:04.686Z,69.44
2019-01-29T16:31:31.450Z,69.96
2019-01-29T16:33:58.372Z,70.18
2019-01-29T16:36:25.149Z,69.87
2019-01-29T16:38:51.707Z,70.03
2019-01-29T16:41:18.333Z,70.74
2019-01-29T16:43:45.259Z,70.90
2019-01-29T16:46:12.318Z,70.89
2019-01-29T16:48:38.987Z,71.44
2019-01-29T16:51:05.817Z,71.62
2019-01-29T16:53:32.938Z,70.96
2019-01-29T16:55:59.848Z,71.73
2019-01-29T16:58:26.855Z,72.00
2019-01-29T17:00:53.428Z,72.15
2019-01-29T17:03:20.529Z,72.59
2019-01-29T17:05:47.519Z,72.89
2019-01-29T17:08:15.020Z,73.59
2019-01-29T17:10:41.866Z,73.30
2019-01-29T17:13:08.771Z,72.48
2019-01-29T17:15:37.535Z,72.63
2019-01-29T17:18:06.789Z,72.98
2019-01-29T17:20:39.432Z,73.26
2019-01-29T17:23:06.980Z,73.88
2019-01-29T17:25:33.585Z,73.85
2019-01-29T17:28:00.192Z,73.64
2019-01-29T17:30:32.131Z,73.74
2019-01-29T17:32:59.015Z,74.06
2019-01-29T17:35:25.571Z,74.37
2019-01-29T17:37:52.397Z,74.18
2019-01-29T17:40:21.221Z,74.50
2019-01-29T17:42:47.839Z,74.43
2019-01-29T17:45:20.298Z,74.87
2019-01-29T17:47:46.868Z,74.26
2019-01-29T17:50:18.578Z,74.21
2019-01-29T17:52:45.333Z,74.35
2019-01-29T17:55:14.229Z,74.83
2019-01-29T17:57:50.342Z,74.46
2019-01-29T18:00:15.127Z,74.66
2019-01-29T18:02:41.752Z,74.58
2019-01-29T18:05:08.368Z,74.81
2019-01-29T18:07:34.989Z,75.06
2019-01-29T18:10:01.549Z,75.50
2019-01-29T18:12:28.259Z,75.39
2019-01-29T18:14:54.880Z,75.73
2019-01-29T18:17:21.545Z,75.65
2019-01-29T18:19:48.250Z,75.95
2019-01-29T18:22:15.061Z,75.96
2019-01-29T18:24:41.844Z,76.31
2019-01-29T18:27:08.756Z,76.16
2019-01-29T18:29:35.458Z,76.30
2019-01-29T18:32:02.013Z,76.27
2019-01-29T18:34:28.740Z,76.15
2019-01-29T18:36:55.414Z,76.07
2019-01-29T18:39:22.133Z,76.10
2019-01-29T18:41:48.717Z,76.20
2019-01-29T18:44:19.329Z,76.51
2019-01-29T18:46:46.712Z,76.31
2019-01-29T18:49:13.595Z,76.00
2019-01-29T18:51:40.682Z,76.35
2019-01-29T18:54:07.253Z,75.94
2019-01-29T18:56:33.817Z,76.24
2019-01-29T18:59:00.524Z,76.74
2019-01-29T19:01:27.147Z,75.92
2019-01-29T19:03:53.742Z,76.41
2019-01-29T19:06:20.474Z,76.67
2019-01-29T19:08:47.215Z,76.29
2019-01-29T19:11:13.878Z,76.05
2019-01-29T19:13:40.524Z,75.85
2019-01-29T19:16:07.140Z,76.08
2019-01-29T19:18:34.116Z,75.67
2019-01-29T19:21:01.264Z,75.96
2019-01-29T19:23:28.699Z,75.95
2019-01-29T19:25:55.718Z,75.40
2019-01-29T19:28:22.998Z,75.54
2019-01-29T19:30:49.742Z,75.25
2019-01-29T19:33:16.583Z,75.23
2019-01-29T19:35:43.501Z,75.34
2019-01-29T19:38:10.376Z,75.66
2019-01-29T19:40:40.414Z,75.67
2019-01-29T19:43:07.424Z,75.87
2019-01-29T19:45:34.483Z,75.34
2019-01-29T19:48:03.910Z,74.85
2019-01-29T19:50:31.696Z,74.96
2019-01-29T19:52:59.371Z,75.09
2019-01-29T19:55:26.471Z,75.03
2019-01-29T19:57:53.305Z,74.99
2019-01-29T20:00:25.140Z,75.69
2019-01-29T20:02:52.209Z,75.11
2019-01-29T20:05:19.028Z,74.94
2019-01-29T20:07:45.626Z,75.06
2019-01-29T20:10:15.749Z,75.55
2019-01-29T20:12:43.375Z,75.41
2019-01-29T20:15:15.436Z,75.59
2019-01-29T20:17:42.343Z,75.37
2019-01-29T20:20:18.038Z,76.07
2019-01-29T20:22:44.741Z,77.18
2019-01-29T20:25:17.370Z,78.37
2019-01-29T20:27:44.232Z,77.76
2019-01-29T20:30:18.285Z,77.90
2019-01-29T20:32:53.255Z,77.35
2019-01-29T20:35:15.154Z,77.11
2019-01-29T20:37:41.748Z,77.74
2019-01-29T20:40:14.398Z,77.54
2019-01-29T20:42:42.627Z,77.69
2019-01-29T20:45:11.589Z,77.69
2019-01-29T20:47:39.106Z,77.41
2019-01-29T20:50:11.674Z,77.30
2019-01-29T20:52:39.395Z,76.94
2019-01-29T20:55:07.183Z,77.11
2019-01-29T20:57:33.905Z,76.76
2019-01-29T21:00:01.065Z,77.17
2019-01-29T21:02:27.621Z,76.97
2019-01-29T21:04:55.053Z,77.26
2019-01-29T21:07:21.609Z,76.99
2019-01-29T21:09:48.247Z,77.23
2019-01-29T21:12:14.955Z,76.94
2019-01-29T21:14:41.664Z,77.00
2019-01-29T21:17:08.318Z,76.60
2019-01-29T21:19:35.088Z,76.66
2019-01-29T21:22:01.699Z,77.37
2019-01-29T21:24:28.434Z,77.16
2019-01-29T21:26:55.014Z,77.22
2019-01-29T21:29:21.675Z,77.78
2019-01-29T21:31:48.649Z,77.57
2019-01-29T21:34:15.413Z,77.39
2019-01-29T21:36:41.998Z,77.55
2019-01-29T21:39:08.674Z,77.28
2019-01-29T21:41:35.288Z,77.18
2019-01-29T21:44:02.928Z,77.49
2019-01-29T21:46:29.814Z,77.26
2019-01-29T21:48:56.526Z,77.11
2019-01-29T21:51:23.171Z,76.38
2019-01-29T21:53:49.843Z,77.05
2019-01-29T21:56:16.510Z,76.76
2019-01-29T21:58:43.061Z,76.40
2019-01-29T22:01:09.826Z,75.99
2019-01-29T22:03:36.520Z,76.07
2019-01-29T22:06:03.583Z,74.85
2019-01-29T22:08:30.435Z,74.17
2019-01-29T22:10:57.040Z,74.18
2019-01-29T22:13:23.678Z,74.10
2019-01-29T22:15:50.328Z,74.09
2019-01-29T22:18:16.951Z,73.34
2019-01-29T22:20:43.575Z,73.41
2019-01-29T22:23:10.153Z,73.39
2019-01-29T22:25:36.756Z,72.88
2019-01-29T22:28:04.697Z,71.68
2019-01-29T22:30:35.968Z,71.04
2019-01-29T22:33:03.515Z,71.47
2019-01-29T22:35:30.095Z,71.19
2019-01-29T22:37:56.811Z,70.63
2019-01-29T22:40:27.124Z,70.22
2019-01-29T22:42:54.462Z,70.55
2019-01-29T22:45:21.185Z,70.86
2019-01-29T22:47:47.806Z,71.13
2019-01-29T22:50:22.802Z,70.83
2019-01-29T22:52:49.472Z,70.81
2019-01-29T22:55:16.270Z,71.19
2019-01-29T22:57:42.979Z,71.43
2019-01-29T23:00:17.346Z,72.70
2019-01-29T23:02:44.172Z,72.05
2019-01-29T23:05:10.836Z,72.05
2019-01-29T23:07:37.842Z,73.71
2019-01-29T23:10:10.200Z,74.36
2019-01-29T23:12:36.822Z,73.62
2019-01-29T23:15:08.923Z,74.35
2019-01-29T23:17:35.811Z,74.72
2019-01-29T23:20:07.098Z,74.85
2019-01-29T23:22:33.670Z,75.11
2019-01-29T23:25:00.314Z,75.01
2019-01-29T23:27:26.883Z,74.61
2019-01-29T23:29:53.479Z,74.66
2019-01-29T23:32:20.249Z,74.08
2019-01-29T23:34:46.968Z,73.68
2019-01-29T23:37:13.721Z,75.08
2019-01-29T23:39:40.382Z,74.94
2019-01-29T23:42:07.006Z,74.65
2019-01-29T23:44:33.686Z,74.75
2019-01-29T23:47:00.717Z,75.36
2019-01-29T23:49:27.405Z,74.96
2019-01-29T23:51:54.261Z,73.25
2019-01-29T23:54:21.269Z,73.75
2019-01-29T23:56:48.199Z,72.72
2019-01-29T23:59:15.420Z,72.38
